TimeEDT,TemperatureF,Dew PointF,Humidity,Sea Level PressureIn,VisibilityMPH,Wind Direction,Wind SpeedMPH,Gust SpeedMPH,PrecipitationIn,Events,Conditions,WindDirDegrees,DateUTC
12:53 AM,66.0,57.0,73,30.06,10.0,ENE,3.5,-,N/A,,Overcast,60,2013-07-26 04:53:00
1:07 AM,66.2,57.2,73,30.05,10.0,NNE,3.5,-,N/A,,Overcast,30,2013-07-26 05:07:00
1:53 AM,66.0,57.9,75,30.06,10.0,Calm,Calm,-,N/A,,Overcast,0,2013-07-26 05:53:00
2:53 AM,66.0,57.0,73,30.04,-9999.0,NE,8.1,-,N/A,,Unknown,50,2013-07-26 06:53:00
3:22 AM,66.2,57.2,73,30.02,10.0,ENE,6.9,-,N/A,,Overcast,60,2013-07-26 07:22:00
3:53 AM,66.0,57.9,75,30.04,10.0,Calm,Calm,-,N/A,,Overcast,0,2013-07-26 07:53:00
4:53 AM,66.0,59.0,78,30.03,10.0,Calm,Calm,-,N/A,,Overcast,0,2013-07-26 08:53:00
5:16 AM,64.4,59.0,83,30.02,10.0,Variable,3.5,-,N/A,,Overcast,0,2013-07-26 09:16:00
5:53 AM,66.0,59.0,78,30.04,10.0,Calm,Calm,-,N/A,,Overcast,0,2013-07-26 09:53:00
6:53 AM,66.0,57.9,75,30.05,10.0,Calm,Calm,-,N/A,,Overcast,0,2013-07-26 10:53:00
7:53 AM,66.9,57.9,73,30.05,10.0,Calm,Calm,-,N/A,,Mostly Cloudy,0,2013-07-26 11:53:00
8:53 AM,69.1,57.9,68,30.06,10.0,NE,3.5,-,N/A,,Overcast,50,2013-07-26 12:53:00
9:53 AM,71.1,57.9,63,30.06,10.0,Variable,6.9,-,N/A,,Mostly Cloudy,0,2013-07-26 13:53:00
10:53 AM,73.0,57.9,59,30.07,10.0,Variable,3.5,-,N/A,,Overcast,0,2013-07-26 14:53:00
11:53 AM,75.0,57.9,55,30.06,10.0,Calm,Calm,-,N/A,,Overcast,0,2013-07-26 15:53:00
12:53 PM,77.0,57.9,52,30.06,10.0,Variable,3.5,-,N/A,,Clear,0,2013-07-26 16:53:00
1:53 PM,78.1,57.9,50,30.05,10.0,NNW,5.8,-,N/A,,Mostly Cloudy,340,2013-07-26 17:53:00
2:53 PM,80.1,57.9,47,30.04,10.0,Variable,4.6,-,N/A,,Clear,0,2013-07-26 18:53:00
3:53 PM,80.1,57.9,47,30.03,10.0,Calm,Calm,-,N/A,,Clear,0,2013-07-26 19:53:00
4:53 PM,81.0,59.0,47,30.02,10.0,Calm,Calm,-,N/A,,Mostly Cloudy,0,2013-07-26 20:53:00
5:53 PM,80.1,59.0,48,30.02,10.0,SW,3.5,-,N/A,,Clear,230,2013-07-26 21:53:00
6:53 PM,80.1,57.9,47,30.03,10.0,SW,5.8,-,N/A,,Clear,230,2013-07-26 22:53:00
7:53 PM,78.1,57.0,48,30.03,10.0,Calm,Calm,-,N/A,,Clear,0,2013-07-26 23:53:00
8:53 PM,75.9,57.0,52,30.04,10.0,Calm,Calm,-,N/A,,Clear,0,2013-07-27 00:53:00
9:53 PM,72.0,57.9,61,30.06,10.0,Calm,Calm,-,N/A,,Clear,0,2013-07-27 01:53:00
10:53 PM,71.1,57.0,61,30.06,10.0,Calm,Calm,-,N/A,,Clear,0,2013-07-27 02:53:00
11:53 PM,70.0,57.0,63,30.07,10.0,Calm,Calm,-,N/A,,Clear,0,2013-07-27 03:53:00